Archival Weather

Snohomish County (Paine Fld)

Everett, Washington (KPAE)

Report from: Saturday, October 28, 2023 12:53 PM PDT
Current time: Monday, June 24, 2024 2:30 AM PDT

Current weather – Weather history – Daily summaries
Weather forecast

Temperature7.8°C (46.0°F)
Wind chill6.2°C (43.1°F)
Dew point-3.3°C (26.1°F)
Winds 5 kts (2.6 m/s, 5.8 mph) Northeast (40°)
Visibility10 mi. (16.1 km)
Clouds Sky clear
Altimeter30.55 in.Hg (1035 mB)
Relative humidity45 %
Density altitude-1,524 ft. (-465 m)
Sea-level pressure103.5 kPa (1035 mB, 30.57 in.Hg)
Remarks Automated weather observing station with precipitation discriminator
Flight conditions Visual Meteorological Conditions
Raw dataKPAE 281953Z 04005KT 10SM CLR 08/M03 A3055 RMK AO2 SLP351 T00781033
An error has occurred. This application may no longer respond until reloaded. Reload 🗙